createdAt,value
2017-07-23T00:01:04.626Z,6.67
2017-07-23T00:03:32.119Z,6.43
2017-07-23T00:05:59.637Z,9.20
2017-07-23T00:08:27.128Z,7.10
2017-07-23T00:10:54.628Z,8.50
2017-07-23T00:13:22.154Z,8.07
2017-07-23T00:15:49.657Z,6.93
2017-07-23T00:18:17.172Z,11.30
2017-07-23T00:20:44.678Z,7.30
2017-07-23T00:23:12.198Z,9.10
2017-07-23T00:25:39.706Z,6.40
2017-07-23T00:28:07.220Z,8.57
2017-07-23T00:30:34.738Z,7.20
2017-07-23T00:33:02.224Z,7.77
2017-07-23T00:35:29.754Z,7.47
2017-07-23T00:37:57.253Z,5.83
2017-07-23T00:40:24.749Z,6.47
2017-07-23T00:42:52.273Z,16.50
2017-07-23T00:45:19.764Z,6.70
2017-07-23T00:47:47.282Z,7.40
2017-07-23T00:50:14.777Z,9.63
2017-07-23T00:52:42.269Z,8.13
2017-07-23T00:55:09.784Z,9.80
2017-07-23T00:57:37.283Z,7.93
2017-07-23T01:00:04.795Z,6.63
2017-07-23T01:02:32.280Z,5.77
2017-07-23T01:04:59.777Z,5.13
2017-07-23T01:07:27.302Z,5.87
2017-07-23T01:09:54.808Z,5.70
2017-07-23T01:12:22.328Z,5.83
2017-07-23T01:14:49.835Z,10.17
2017-07-23T01:17:17.328Z,6.50
2017-07-23T01:19:44.850Z,5.70
2017-07-23T01:22:12.344Z,7.03
2017-07-23T01:24:39.866Z,6.87
2017-07-23T01:27:07.361Z,6.37
2017-07-23T01:29:34.862Z,7.43
2017-07-23T01:32:02.376Z,8.20
2017-07-23T01:34:29.879Z,6.60
2017-07-23T01:36:57.397Z,7.10
2017-07-23T01:39:25.108Z,6.33
2017-07-23T01:41:52.616Z,8.20
2017-07-23T01:44:20.116Z,7.87
2017-07-23T01:46:47.620Z,6.50
2017-07-23T01:49:15.139Z,6.70
2017-07-23T01:51:42.628Z,6.23
2017-07-23T01:54:10.143Z,9.13
2017-07-23T01:56:37.640Z,6.87
2017-07-23T01:59:05.137Z,9.83
2017-07-23T02:01:32.654Z,6.40
2017-07-23T02:04:00.163Z,9.10
2017-07-23T02:06:27.682Z,10.97
2017-07-23T02:08:55.194Z,6.83
2017-07-23T02:11:22.719Z,7.90
2017-07-23T02:13:50.206Z,7.13
2017-07-23T02:16:17.712Z,9.37
2017-07-23T02:18:45.223Z,8.63
2017-07-23T02:21:12.713Z,7.63
2017-07-23T02:23:40.220Z,8.40
2017-07-23T02:26:07.713Z,9.63
2017-07-23T02:28:35.207Z,7.33
2017-07-23T02:31:02.720Z,9.33
2017-07-23T02:33:30.208Z,9.30
2017-07-23T02:35:57.725Z,9.10
2017-07-23T02:38:25.221Z,8.93
2017-07-23T02:40:52.715Z,9.10
2017-07-23T02:43:20.236Z,9.10
2017-07-23T02:45:47.733Z,8.50
2017-07-23T02:48:15.245Z,9.73
2017-07-23T02:50:42.731Z,6.83
2017-07-23T02:53:10.221Z,8.10
2017-07-23T02:55:37.740Z,7.17
2017-07-23T02:58:05.229Z,8.50
2017-07-23T03:00:32.742Z,8.13
2017-07-23T03:03:00.275Z,8.03
2017-07-23T03:05:27.792Z,9.57
2017-07-23T03:07:55.294Z,7.63
2017-07-23T03:10:22.854Z,9.47
2017-07-23T03:12:50.368Z,9.90
2017-07-23T03:15:17.858Z,9.10
2017-07-23T03:17:45.388Z,7.83
2017-07-23T03:20:12.885Z,10.13
2017-07-23T03:22:40.393Z,9.03
2017-07-23T03:25:07.900Z,9.20
2017-07-23T03:27:35.396Z,17.70
2017-07-23T03:30:02.907Z,11.77
2017-07-23T03:32:30.396Z,9.10
2017-07-23T03:34:57.916Z,9.93
2017-07-23T03:37:25.423Z,10.87
2017-07-23T03:39:52.921Z,13.50
2017-07-23T03:42:20.665Z,11.17
2017-07-23T03:44:48.162Z,11.50
2017-07-23T03:47:15.679Z,9.37
2017-07-23T03:49:43.168Z,13.10
2017-07-23T03:52:10.661Z,8.97
2017-07-23T03:54:38.167Z,12.60
2017-07-23T03:57:05.652Z,9.10
2017-07-23T03:59:33.165Z,11.23
2017-07-23T04:02:00.668Z,9.43
2017-07-23T04:04:28.175Z,9.43
2017-07-23T04:06:55.687Z,6.67
2017-07-23T04:09:23.205Z,11.20
2017-07-23T04:11:50.716Z,10.27
2017-07-23T04:14:18.211Z,11.90
2017-07-23T04:16:45.716Z,13.00
2017-07-23T04:19:13.207Z,10.03
2017-07-23T04:21:40.704Z,11.73
2017-07-23T04:24:08.211Z,9.80
2017-07-23T04:26:35.707Z,14.67
2017-07-23T04:29:03.443Z,13.90
2017-07-23T04:31:30.936Z,12.50
2017-07-23T04:33:58.453Z,14.63
2017-07-23T04:36:25.941Z,12.40
2017-07-23T04:38:53.433Z,9.47
2017-07-23T04:41:20.944Z,11.73
2017-07-23T04:43:48.436Z,9.53
2017-07-23T04:46:15.944Z,9.70
2017-07-23T04:48:43.432Z,9.00
2017-07-23T04:51:10.943Z,11.13
2017-07-23T04:53:38.436Z,11.30
2017-07-23T04:56:05.928Z,14.80
2017-07-23T04:58:33.444Z,8.00
2017-07-23T05:01:00.941Z,13.07
2017-07-23T05:03:28.450Z,9.10
2017-07-23T05:05:55.948Z,12.00
2017-07-23T05:08:23.469Z,14.53
2017-07-23T05:10:50.961Z,10.40
2017-07-23T05:13:18.478Z,8.70
2017-07-23T05:15:45.993Z,10.20
2017-07-23T05:18:13.486Z,9.60
2017-07-23T05:20:41.005Z,10.97
2017-07-23T05:23:08.489Z,9.67
2017-07-23T05:25:35.985Z,9.40
2017-07-23T05:28:03.504Z,9.63
2017-07-23T05:30:31.001Z,8.10
2017-07-23T05:32:58.520Z,10.40
2017-07-23T05:35:26.018Z,9.23
2017-07-23T05:37:53.507Z,8.17
2017-07-23T05:40:21.032Z,11.50
2017-07-23T05:42:48.529Z,8.63
2017-07-23T05:45:16.042Z,8.07
2017-07-23T05:47:43.540Z,8.43
2017-07-23T05:50:11.057Z,7.73
2017-07-23T05:52:38.558Z,6.97
2017-07-23T05:55:06.063Z,10.27
2017-07-23T05:57:33.577Z,8.40
2017-07-23T06:00:01.296Z,13.23
2017-07-23T06:02:28.812Z,7.10
2017-07-23T06:04:56.313Z,14.57
2017-07-23T06:07:23.796Z,6.67
2017-07-23T06:09:51.602Z,7.70
2017-07-23T06:12:19.324Z,7.37
2017-07-23T06:14:47.107Z,7.63
2017-07-23T06:17:14.587Z,6.27
2017-07-23T06:19:42.070Z,5.30
2017-07-23T06:22:09.633Z,5.80
2017-07-23T06:24:37.132Z,5.47
2017-07-23T06:27:04.641Z,4.80
2017-07-23T06:29:32.127Z,5.50
2017-07-23T06:31:59.607Z,6.90
2017-07-23T06:34:27.117Z,4.70
2017-07-23T06:36:54.608Z,8.23
2017-07-23T06:39:22.125Z,4.93
2017-07-23T06:41:49.613Z,4.30
2017-07-23T06:44:17.105Z,4.10
2017-07-23T06:46:44.616Z,6.20
2017-07-23T06:49:12.109Z,4.80
2017-07-23T06:51:39.611Z,4.87
2017-07-23T06:54:07.109Z,4.10
2017-07-23T06:56:34.616Z,4.37
2017-07-23T06:59:02.104Z,4.13
2017-07-23T07:01:29.583Z,6.23
2017-07-23T07:03:57.092Z,4.33
2017-07-23T07:06:24.587Z,4.60
2017-07-23T07:08:52.100Z,4.03
2017-07-23T07:11:19.584Z,3.67
2017-07-23T07:13:47.076Z,4.43
2017-07-23T07:16:14.580Z,5.10
2017-07-23T07:18:42.060Z,4.70
2017-07-23T07:21:09.573Z,5.27
2017-07-23T07:23:37.056Z,4.17
2017-07-23T07:26:04.797Z,6.20
2017-07-23T07:28:32.291Z,4.33
2017-07-23T07:30:59.780Z,4.30
2017-07-23T07:33:27.292Z,6.80
2017-07-23T07:35:54.782Z,8.10
2017-07-23T07:38:22.307Z,14.33
2017-07-23T07:40:49.795Z,4.77
2017-07-23T07:43:17.302Z,6.70
2017-07-23T07:45:44.808Z,5.43
2017-07-23T07:48:12.302Z,5.53
2017-07-23T07:50:39.808Z,3.83
2017-07-23T07:53:07.336Z,5.53
2017-07-23T07:55:34.840Z,5.40
2017-07-23T07:58:02.330Z,7.63
2017-07-23T08:00:29.821Z,4.80
2017-07-23T08:02:57.324Z,5.47
2017-07-23T08:05:25.720Z,5.40
2017-07-23T08:07:53.245Z,7.67
2017-07-23T08:10:20.741Z,3.70
2017-07-23T08:12:48.232Z,5.33
2017-07-23T08:15:15.739Z,4.50
2017-07-23T08:17:44.612Z,3.53
2017-07-23T08:22:44.945Z,6.23
2017-07-23T08:25:12.473Z,4.40
2017-07-23T08:27:39.964Z,2.47
2017-07-23T08:30:07.463Z,3.60
2017-07-23T08:32:34.985Z,4.37
2017-07-23T08:35:02.525Z,3.40
2017-07-23T08:37:30.051Z,2.93
2017-07-23T08:39:57.544Z,4.10
2017-07-23T08:42:25.056Z,4.50
2017-07-23T08:44:52.575Z,6.97
2017-07-23T08:47:20.076Z,4.60
2017-07-23T08:49:47.592Z,7.33
2017-07-23T08:52:15.084Z,2.50
2017-07-23T08:54:42.596Z,6.03
2017-07-23T08:57:10.079Z,2.40
2017-07-23T08:59:37.813Z,2.43
2017-07-23T09:02:05.300Z,6.00
2017-07-23T09:04:32.785Z,4.00
2017-07-23T09:07:00.302Z,5.07
2017-07-23T09:09:27.792Z,3.90
2017-07-23T09:11:56.082Z,8.73
2017-07-23T09:14:23.560Z,3.90
2017-07-23T09:16:51.070Z,7.70
2017-07-23T09:19:18.557Z,4.17
2017-07-23T09:21:46.748Z,9.13
2017-07-23T09:24:14.233Z,4.00
2017-07-23T09:26:41.752Z,6.10
2017-07-23T09:29:09.235Z,3.10
2017-07-23T09:31:36.745Z,4.20
2017-07-23T09:34:04.246Z,4.03
2017-07-23T09:36:31.744Z,2.90
2017-07-23T09:38:59.258Z,4.37
2017-07-23T09:41:26.748Z,5.13
2017-07-23T09:43:54.378Z,2.00
2017-07-23T09:46:21.873Z,6.30
2017-07-23T09:48:49.372Z,4.13
2017-07-23T09:51:16.877Z,4.50
2017-07-23T09:53:44.738Z,3.60
2017-07-23T09:56:12.362Z,5.10
2017-07-23T09:58:42.945Z,6.47
2017-07-23T10:01:10.446Z,2.97
2017-07-23T10:03:37.961Z,2.20
2017-07-23T10:06:05.456Z,2.17
2017-07-23T10:08:32.976Z,2.47
2017-07-23T10:11:00.476Z,2.57
2017-07-23T10:13:27.979Z,5.83
2017-07-23T10:15:55.471Z,4.10
2017-07-23T10:18:22.961Z,4.03
2017-07-23T10:20:50.467Z,2.10
2017-07-23T10:23:17.968Z,11.23
2017-07-23T10:25:45.484Z,3.50
2017-07-23T10:28:12.991Z,5.03
2017-07-23T10:30:40.504Z,2.47
2017-07-23T10:33:08.004Z,2.33
2017-07-23T10:35:35.513Z,3.83
2017-07-23T10:38:02.996Z,3.70
2017-07-23T10:40:30.485Z,4.50
2017-07-23T10:42:57.997Z,3.07
2017-07-23T10:45:25.487Z,3.10
2017-07-23T10:47:53.011Z,3.70
2017-07-23T10:50:20.515Z,2.80
2017-07-23T10:52:48.012Z,3.23
2017-07-23T10:55:15.529Z,2.17
2017-07-23T10:57:43.039Z,3.93
2017-07-23T11:00:10.552Z,3.37
2017-07-23T11:02:38.049Z,3.90
2017-07-23T11:05:05.564Z,2.93
2017-07-23T11:07:33.063Z,3.00
2017-07-23T11:10:00.548Z,4.50
2017-07-23T11:12:28.136Z,3.70
2017-07-23T11:14:55.624Z,4.03
2017-07-23T11:17:23.144Z,3.73
2017-07-23T11:19:50.772Z,4.20
2017-07-23T11:22:18.302Z,3.77
2017-07-23T11:24:45.800Z,5.20
2017-07-23T11:27:13.301Z,4.23
2017-07-23T11:29:40.821Z,5.27
2017-07-23T11:32:09.057Z,7.37
2017-07-23T11:34:36.579Z,6.23
2017-07-23T11:37:04.076Z,2.30
2017-07-23T11:39:31.590Z,4.40
2017-07-23T11:41:59.087Z,2.77
2017-07-23T11:44:26.907Z,5.57
2017-07-23T11:46:54.428Z,3.90
2017-07-23T11:49:21.943Z,2.70
2017-07-23T11:51:49.431Z,3.50
2017-07-23T11:54:16.949Z,4.03
2017-07-23T11:56:44.436Z,2.83
2017-07-23T11:59:11.944Z,3.70
2017-07-23T12:01:39.433Z,4.90
2017-07-23T12:04:06.960Z,4.43
2017-07-23T12:06:34.453Z,4.73
2017-07-23T12:09:01.968Z,2.40
2017-07-23T12:11:29.465Z,4.63
2017-07-23T12:13:56.991Z,5.87
2017-07-23T12:16:24.505Z,5.00
2017-07-23T12:18:51.997Z,5.90
2017-07-23T12:21:19.509Z,4.77
2017-07-23T12:23:47.003Z,4.10
2017-07-23T12:26:14.521Z,5.13
2017-07-23T12:28:42.024Z,5.23
2017-07-23T12:31:09.533Z,2.97
2017-07-23T12:33:37.028Z,7.30
2017-07-23T12:36:04.537Z,5.53
2017-07-23T12:38:32.031Z,3.30
2017-07-23T12:40:59.544Z,5.97
2017-07-23T12:43:27.052Z,5.27
2017-07-23T12:45:54.571Z,4.50
2017-07-23T12:48:22.062Z,7.63
2017-07-23T12:50:49.647Z,3.23
2017-07-23T12:53:17.137Z,3.70
2017-07-23T12:55:44.648Z,3.53
2017-07-23T12:58:12.264Z,4.70
2017-07-23T13:00:47.591Z,4.80
2017-07-23T13:03:15.073Z,6.23
2017-07-23T13:05:42.585Z,3.90
2017-07-23T13:08:10.072Z,3.53
2017-07-23T13:10:37.584Z,4.23
2017-07-23T13:13:05.073Z,4.97
2017-07-23T13:15:32.814Z,3.87
2017-07-23T13:18:00.330Z,3.10
2017-07-23T13:20:27.875Z,3.60
2017-07-23T13:22:55.364Z,2.50
2017-07-23T13:25:22.874Z,2.87
2017-07-23T13:27:50.356Z,5.77
2017-07-23T13:30:17.882Z,4.83
2017-07-23T13:32:45.369Z,10.40
2017-07-23T13:35:12.874Z,6.60
2017-07-23T13:37:40.364Z,3.50
2017-07-23T13:40:07.860Z,3.50
2017-07-23T13:42:35.360Z,3.97
2017-07-23T13:45:02.864Z,3.90
2017-07-23T13:47:30.400Z,2.33
2017-07-23T13:49:57.895Z,2.80
2017-07-23T13:52:25.451Z,2.60
2017-07-23T13:54:52.949Z,5.70
2017-07-23T13:57:20.466Z,2.90
2017-07-23T13:59:47.996Z,4.10
2017-07-23T14:02:15.496Z,2.50
2017-07-23T14:04:42.999Z,6.80
2017-07-23T14:07:19.440Z,3.40
2017-07-23T14:09:46.920Z,3.80
2017-07-23T14:12:14.420Z,2.80
2017-07-23T14:14:41.937Z,2.87
2017-07-23T14:17:09.424Z,8.00
2017-07-23T14:19:36.933Z,2.83
2017-07-23T14:22:04.423Z,3.57
2017-07-23T14:24:31.938Z,4.90
2017-07-23T14:26:59.449Z,3.33
2017-07-23T14:29:26.936Z,4.93
2017-07-23T14:31:54.552Z,3.03
2017-07-23T14:34:22.036Z,5.20
2017-07-23T14:36:49.556Z,4.13
2017-07-23T14:39:17.059Z,3.50
2017-07-23T14:41:44.557Z,4.70
2017-07-23T14:44:12.068Z,5.37
2017-07-23T14:46:39.564Z,4.50
2017-07-23T14:49:07.072Z,3.47
2017-07-23T14:51:34.564Z,3.30
2017-07-23T14:54:02.068Z,3.80
2017-07-23T14:56:29.559Z,2.77
2017-07-23T14:58:57.061Z,3.67
2017-07-23T15:01:24.580Z,4.90
2017-07-23T15:03:52.069Z,18.67
2017-07-23T15:06:19.595Z,5.07
2017-07-23T15:08:47.481Z,7.33
2017-07-23T15:11:14.976Z,5.80
2017-07-23T15:13:42.495Z,3.17
2017-07-23T15:16:09.981Z,3.40
2017-07-23T15:18:37.490Z,2.60
2017-07-23T15:21:04.973Z,5.33
2017-07-23T15:23:32.466Z,5.07
2017-07-23T15:26:00.022Z,3.80
2017-07-23T15:28:27.541Z,1.87
2017-07-23T15:30:55.061Z,3.10
2017-07-23T15:33:22.545Z,2.80
2017-07-23T15:35:50.057Z,2.80
2017-07-23T15:38:17.553Z,4.33
2017-07-23T15:40:45.048Z,5.27
2017-07-23T15:43:12.552Z,6.13
2017-07-23T15:45:40.051Z,3.37
2017-07-23T15:48:07.577Z,3.70
2017-07-23T15:50:35.071Z,3.33
2017-07-23T15:53:02.897Z,3.20
2017-07-23T15:55:30.380Z,9.87
2017-07-23T15:57:57.927Z,4.93
2017-07-23T16:00:25.424Z,9.90
2017-07-23T16:02:52.941Z,9.73
2017-07-23T16:05:20.430Z,17.30
2017-07-23T16:07:47.940Z,21.33
2017-07-23T16:10:15.429Z,4.23
2017-07-23T16:12:42.942Z,6.37
2017-07-23T16:15:10.432Z,7.70
2017-07-23T16:17:37.944Z,12.70
2017-07-23T16:20:05.439Z,6.50
2017-07-23T16:22:32.957Z,5.93
2017-07-23T16:25:00.688Z,3.80
2017-07-23T16:27:28.197Z,4.70
2017-07-23T16:29:55.685Z,5.07
2017-07-23T16:32:23.196Z,4.20
2017-07-23T16:34:50.729Z,3.40
2017-07-23T16:37:18.232Z,2.60
2017-07-23T16:39:45.736Z,3.60
2017-07-23T16:42:13.229Z,2.53
2017-07-23T16:44:40.741Z,2.40
2017-07-23T16:47:08.231Z,3.00
2017-07-23T16:49:35.741Z,2.53
2017-07-23T16:52:03.232Z,6.30
2017-07-23T16:54:30.762Z,4.00
2017-07-23T16:56:58.248Z,4.70
2017-07-23T16:59:25.757Z,4.77
2017-07-23T17:01:53.244Z,3.53
2017-07-23T17:04:20.756Z,7.03
2017-07-23T17:06:48.256Z,2.60
2017-07-23T17:09:15.752Z,2.13
2017-07-23T17:11:43.267Z,2.13
2017-07-23T17:14:10.765Z,2.83
2017-07-23T17:16:38.316Z,2.90
2017-07-23T17:19:05.808Z,2.83
2017-07-23T17:21:33.320Z,1.77
2017-07-23T17:24:00.808Z,2.07
2017-07-23T17:26:28.327Z,8.40
2017-07-23T17:28:55.824Z,3.57
2017-07-23T17:31:23.338Z,3.33
2017-07-23T17:33:50.824Z,3.20
2017-07-23T17:36:18.347Z,2.27
2017-07-23T17:38:45.854Z,3.20
2017-07-23T17:41:13.393Z,2.80
2017-07-23T17:43:40.900Z,1.77
2017-07-23T17:46:08.408Z,3.20
2017-07-23T17:48:35.910Z,2.93
2017-07-23T17:51:03.438Z,2.20
2017-07-23T17:53:30.942Z,1.97
2017-07-23T17:55:58.452Z,4.07
2017-07-23T17:58:25.943Z,2.10
2017-07-23T18:00:53.464Z,1.80
2017-07-23T18:03:20.976Z,3.00
2017-07-23T18:05:48.493Z,4.47
2017-07-23T18:08:15.989Z,4.73
2017-07-23T18:10:43.486Z,2.00
2017-07-23T18:13:10.993Z,2.33
2017-07-23T18:15:38.483Z,2.77
2017-07-23T18:18:05.989Z,3.20
2017-07-23T18:20:33.509Z,3.13
2017-07-23T18:23:01.017Z,2.20
2017-07-23T18:25:28.516Z,2.73
2017-07-23T18:27:56.027Z,2.20
2017-07-23T18:30:23.532Z,3.30
2017-07-23T18:32:51.057Z,3.40
2017-07-23T18:35:18.556Z,4.10
2017-07-23T18:37:46.060Z,2.60
2017-07-23T18:40:13.548Z,3.70
2017-07-23T18:42:41.061Z,2.73
2017-07-23T18:45:08.557Z,3.00
2017-07-23T18:47:36.066Z,3.20
2017-07-23T18:50:03.556Z,2.27
2017-07-23T18:52:31.064Z,1.60
2017-07-23T18:54:58.636Z,6.47
2017-07-23T18:57:26.150Z,3.13
2017-07-23T18:59:53.662Z,2.60
2017-07-23T19:02:21.180Z,3.63
2017-07-23T19:04:48.684Z,5.27
2017-07-23T19:07:16.214Z,2.73
2017-07-23T19:09:43.710Z,5.80
2017-07-23T19:12:11.236Z,5.60
2017-07-23T19:14:38.806Z,4.37
2017-07-23T19:17:06.343Z,2.53
2017-07-23T19:19:33.856Z,7.40
2017-07-23T19:22:01.352Z,6.20
2017-07-23T19:24:28.884Z,2.87
2017-07-23T19:26:56.411Z,2.47
2017-07-23T19:29:23.925Z,7.77
2017-07-23T19:31:51.421Z,3.47
2017-07-23T19:34:18.936Z,3.97
2017-07-23T19:36:46.502Z,4.30
2017-07-23T19:39:14.024Z,4.30
2017-07-23T19:41:41.525Z,5.20
2017-07-23T19:44:09.147Z,6.30
2017-07-23T19:46:36.662Z,8.73
2017-07-23T19:49:05.018Z,9.50
2017-07-23T19:51:32.540Z,5.53
2017-07-23T19:54:00.066Z,4.27
2017-07-23T19:56:27.571Z,3.70
2017-07-23T19:58:55.076Z,3.83
2017-07-23T20:01:22.593Z,3.30
2017-07-23T20:03:50.110Z,5.60
2017-07-23T20:06:17.630Z,4.13
2017-07-23T20:08:45.160Z,2.63
2017-07-23T20:11:12.656Z,3.83
2017-07-23T20:13:40.960Z,4.87
2017-07-23T20:16:08.821Z,7.70
2017-07-23T20:18:36.325Z,3.83
2017-07-23T20:21:03.845Z,4.40
2017-07-23T20:23:31.337Z,3.77
2017-07-23T20:25:59.290Z,2.93
2017-07-23T20:28:26.789Z,2.10
2017-07-23T20:30:54.309Z,2.60
2017-07-23T20:33:21.812Z,5.63
2017-07-23T20:35:49.317Z,4.50
2017-07-23T20:38:16.812Z,7.20
2017-07-23T20:40:44.349Z,3.50
2017-07-23T20:43:11.845Z,7.83
2017-07-23T20:45:39.364Z,2.80
2017-07-23T20:48:06.856Z,3.60
2017-07-23T20:50:34.372Z,2.67
2017-07-23T20:53:01.867Z,2.50
2017-07-23T20:55:29.474Z,3.33
2017-07-23T20:57:57.420Z,6.20
2017-07-23T21:00:24.984Z,6.27
2017-07-23T21:02:52.489Z,3.57
2017-07-23T21:05:20.824Z,9.17
2017-07-23T21:07:48.321Z,3.47
2017-07-23T21:10:15.828Z,3.30
2017-07-23T21:12:43.321Z,4.53
2017-07-23T21:15:10.837Z,2.50
2017-07-23T21:17:38.331Z,5.33
2017-07-23T21:20:05.844Z,7.57
2017-07-23T21:22:33.336Z,5.10
2017-07-23T21:25:00.858Z,4.47
2017-07-23T21:27:28.353Z,4.13
2017-07-23T21:29:55.884Z,7.53
2017-07-23T21:32:23.371Z,4.00
2017-07-23T21:34:50.867Z,2.40
2017-07-23T21:37:18.382Z,2.77
2017-07-23T21:39:45.877Z,2.57
2017-07-23T21:42:13.388Z,4.03
2017-07-23T21:44:40.883Z,3.90
2017-07-23T21:47:08.394Z,4.43
2017-07-23T21:49:35.880Z,1.60
2017-07-23T21:52:03.399Z,3.50
2017-07-23T21:54:30.897Z,3.17
2017-07-23T21:56:58.420Z,3.50
2017-07-23T21:59:25.917Z,2.40
2017-07-23T22:01:53.433Z,1.67
2017-07-23T22:04:20.923Z,6.17
2017-07-23T22:06:48.444Z,2.30
2017-07-23T22:09:15.941Z,3.30
2017-07-23T22:11:43.454Z,4.87
2017-07-23T22:14:10.949Z,7.87
2017-07-23T22:16:38.461Z,2.37
2017-07-23T22:19:05.957Z,2.90
2017-07-23T22:21:33.464Z,4.70
2017-07-23T22:24:00.960Z,1.47
2017-07-23T22:26:28.452Z,2.83
2017-07-23T22:28:55.972Z,2.53
2017-07-23T22:31:23.460Z,2.23
2017-07-23T22:33:50.979Z,2.10
2017-07-23T22:36:18.510Z,1.93
2017-07-23T22:38:46.028Z,2.37
2017-07-23T22:41:13.516Z,7.03
2017-07-23T22:43:41.024Z,3.83
2017-07-23T22:46:08.530Z,2.47
2017-07-23T22:48:36.040Z,2.33
2017-07-23T22:51:03.539Z,3.03
2017-07-23T22:53:31.052Z,3.00
2017-07-23T22:55:58.769Z,3.90
2017-07-23T22:58:26.276Z,5.80
2017-07-23T23:00:53.790Z,2.53
2017-07-23T23:03:21.309Z,4.30
2017-07-23T23:05:48.801Z,3.80
2017-07-23T23:08:16.308Z,3.50
2017-07-23T23:10:44.648Z,2.30
2017-07-23T23:13:12.163Z,2.07
2017-07-23T23:15:39.664Z,3.90
2017-07-23T23:18:07.152Z,3.97
2017-07-23T23:20:34.659Z,3.00
2017-07-23T23:23:02.147Z,3.33
2017-07-23T23:25:29.664Z,3.77
2017-07-23T23:27:57.155Z,4.03
2017-07-23T23:30:24.680Z,7.57
2017-07-23T23:32:52.170Z,5.93
2017-07-23T23:35:19.672Z,3.63
2017-07-23T23:37:47.168Z,6.40
2017-07-23T23:40:14.675Z,2.93
2017-07-23T23:42:42.164Z,3.93
2017-07-23T23:45:09.667Z,3.93
2017-07-23T23:47:37.160Z,2.10
2017-07-23T23:50:04.668Z,2.63
2017-07-23T23:52:32.169Z,5.43
2017-07-23T23:54:59.681Z,1.90
2017-07-23T23:57:27.178Z,3.10
2017-07-23T23:59:54.679Z,3.00
